Terminal Aerodrome Forecast
Issued by NWS

Home | Current Version | Previous Version | Text Only | Print | Product List | Glossary On
Versions: 1 2 3 4 5 6 7 8 9 10 11 12 13 14 15 16 17 18 19 20 21 22 23 24 25 26 27
000
FTUS43 KAPX 272300
TAFAPN
TAF
KAPN 272320Z 2800/2824 30005KT P6SM SCT050
     FM280200 VRB03KT P6SM SKC
     FM281500 06007KT P6SM FEW250=

USA.gov is the U.S. government's official web portal to all federal, state and local government web resources and services.